Time;durP1;ratioP1;P1;durP2;ratioP2;P2;SDS_P1;SDS_P2;PMS_P1;PMS_P2;Temp;Humidity;BMP_temperature;BMP_pressure;BME280_temperature;BME280_humidity;BME280_pressure;Samples;Min_cycle;Max_cycle;Signal;HPM_P1;HPM_P2
2022/04/26 03:37:17;;;;;;;0.60;0.60;;;19.40;53.30;;;;;;4971273;28;20427;-17
2022/04/26 03:39:43;;;;;;;0.70;0.70;;;19.40;53.50;;;;;;4998056;28;20380;-16
2022/04/26 03:42:08;;;;;;;0.88;0.88;;;19.40;53.50;;;;;;4993152;28;20070;-17
2022/04/26 03:44:34;;;;;;;0.50;0.50;;;19.30;53.40;;;;;;4978607;28;20126;-18
2022/04/26 03:46:59;;;;;;;0.75;0.75;;;19.40;53.60;;;;;;4979340;28;20137;-17
2022/04/26 03:49:25;;;;;;;0.82;0.82;;;19.40;53.60;;;;;;4977784;28;20125;-17
2022/04/26 03:51:54;;;;;;;0.70;0.70;;;19.40;53.50;;;;;;4986326;28;20055;-17
2022/04/26 03:54:23;;;;;;;0.80;0.80;;;19.40;53.60;;;;;;4994387;28;20524;-16
2022/04/26 03:56:49;;;;;;;0.70;0.70;;;19.30;53.70;;;;;;4977535;28;20065;-17
2022/04/26 03:59:14;;;;;;;0.88;0.85;;;19.30;54.00;;;;;;4997294;28;20058;-16
2022/04/26 04:01:40;;;;;;;0.88;0.70;;;19.30;54.00;;;;;;4997699;28;20046;-16
2022/04/26 04:04:06;;;;;;;0.60;0.60;;;19.30;53.90;;;;;;4996572;28;20077;-16
2022/04/26 04:06:31;;;;;;;0.80;0.80;;;19.30;53.50;;;;;;4978417;28;20053;-17
2022/04/26 04:08:57;;;;;;;0.93;0.85;;;19.30;54.40;;;;;;4978036;28;20109;-17
2022/04/26 04:11:22;;;;;;;0.60;0.60;;;19.20;53.80;;;;;;4983085;28;20458;-17
2022/04/26 04:13:48;;;;;;;0.57;0.57;;;19.30;53.70;;;;;;4997504;28;20070;-17
2022/04/26 04:16:14;;;;;;;0.70;0.70;;;19.20;53.90;;;;;;4990757;28;20051;-17
2022/04/26 04:21:24;;;;;;;1.00;1.00;;;19.20;53.90;;;;;;4984867;28;20149;-17
2022/04/26 04:23:49;;;;;;;0.80;0.80;;;19.30;54.00;;;;;;4997104;28;20097;-17
2022/04/26 04:26:15;;;;;;;0.98;0.90;;;19.20;54.00;;;;;;4997790;28;20046;-17
2022/04/26 04:28:40;;;;;;;1.13;1.08;;;19.20;54.10;;;;;;4981819;28;20042;-17
2022/04/26 04:31:07;;;;;;;0.70;0.70;;;19.20;53.90;;;;;;4978336;28;20049;-17
2022/04/26 04:33:32;;;;;;;0.70;0.70;;;19.20;53.80;;;;;;4987911;28;20057;-16
2022/04/26 04:35:58;;;;;;;0.80;0.80;;;19.20;53.90;;;;;;4996918;28;20050;-17
2022/04/26 04:38:26;;;;;;;1.23;1.15;;;19.20;54.10;;;;;;4997455;28;20455;-16
2022/04/26 04:40:52;;;;;;;0.80;0.80;;;19.20;53.60;;;;;;4996980;28;20419;-16
2022/04/26 04:43:18;;;;;;;0.68;0.68;;;19.20;53.90;;;;;;4995915;28;20384;-16
2022/04/26 04:45:43;;;;;;;0.90;0.90;;;19.20;53.80;;;;;;4997004;28;20399;-16
2022/04/26 04:48:09;;;;;;;1.10;0.98;;;19.20;53.80;;;;;;4997380;28;20096;-16
2022/04/26 04:50:35;;;;;;;0.70;0.70;;;19.20;53.90;;;;;;4997065;28;20042;-17
2022/04/26 04:53:01;;;;;;;0.80;0.80;;;19.20;54.00;;;;;;4994969;28;20051;-16
2022/04/26 04:55:26;;;;;;;0.70;0.70;;;19.20;53.90;;;;;;4983942;28;20078;-17
2022/04/26 04:57:52;;;;;;;0.82;0.82;;;19.10;54.10;;;;;;4976391;28;20508;-16
2022/04/26 05:00:18;;;;;;;0.63;0.63;;;19.10;54.40;;;;;;4977698;28;20042;-17
2022/04/26 05:02:43;;;;;;;0.90;0.70;;;19.10;54.10;;;;;;4975745;28;20097;-17
2022/04/26 05:05:09;;;;;;;0.70;0.70;;;19.10;54.20;;;;;;4977287;28;20130;-16
2022/04/26 05:07:36;;;;;;;0.85;0.85;;;19.10;54.30;;;;;;4977494;28;20496;-16
2022/04/26 05:10:02;;;;;;;0.60;0.60;;;19.10;54.20;;;;;;4975693;28;20050;-17
2022/04/26 05:12:28;;;;;;;0.95;0.77;;;19.10;54.20;;;;;;4626119;28;10000476;-16
2022/04/26 05:14:53;;;;;;;0.95;0.77;;;19.10;54.50;;;;;;4972489;28;20572;-17
2022/04/26 05:17:19;;;;;;;2.25;0.80;;;19.00;54.60;;;;;;4963604;28;20102;-16
2022/04/26 05:19:44;;;;;;;0.60;0.60;;;19.10;54.30;;;;;;4970771;28;20070;-17
2022/04/26 05:22:10;;;;;;;0.90;0.90;;;19.00;54.70;;;;;;4970195;28;20093;-17
2022/04/26 05:24:56;;;;;;;1.73;0.70;;;19.00;54.40;;;;;;4967632;28;20074;-17
2022/04/26 05:27:34;;;;;;;0.88;0.80;;;19.00;54.50;;;;;;4972303;28;20082;-17
2022/04/26 05:29:59;;;;;;;1.02;1.02;;;19.00;54.70;;;;;;4972806;28;20058;-17
2022/04/26 05:32:27;;;;;;;0.75;0.75;;;19.00;54.50;;;;;;4972534;28;20055;-16
2022/04/26 05:35:00;;;;;;;1.48;0.80;;;19.00;54.50;;;;;;4972120;28;20105;-17
2022/04/26 05:37:26;;;;;;;2.65;0.82;;;19.10;54.50;;;;;;4964158;28;20035;-16
2022/04/26 05:39:52;;;;;;;0.88;0.88;;;19.10;54.30;;;;;;4967984;28;20216;-17
2022/04/26 05:42:18;;;;;;;1.20;1.10;;;19.10;54.10;;;;;;4963993;28;20039;-16
2022/04/26 05:44:43;;;;;;;1.40;1.23;;;19.10;53.70;;;;;;4973191;28;20043;-17
2022/04/26 05:47:09;;;;;;;1.20;1.20;;;19.10;53.70;;;;;;4967502;28;20066;-17
2022/04/26 05:49:35;;;;;;;2.22;1.38;;;19.00;53.20;;;;;;4972701;28;20422;-17
2022/04/26 05:52:04;;;;;;;3.28;1.77;;;19.00;52.80;;;;;;4967258;28;20055;-17
2022/04/26 05:54:30;;;;;;;1.95;1.85;;;19.00;52.40;;;;;;4970189;28;20047;-17
2022/04/26 05:56:56;;;;;;;2.17;2.08;;;18.90;52.20;;;;;;4967061;28;20054;-16
2022/04/26 05:59:21;;;;;;;2.33;1.88;;;18.90;51.80;;;;;;4975393;28;20053;-19
2022/04/26 06:01:48;;;;;;;2.38;2.17;;;19.00;51.80;;;;;;4959877;28;20051;-19
2022/04/26 06:04:13;;;;;;;2.90;2.70;;;19.00;51.40;;;;;;4961341;28;20475;-19
2022/04/26 06:06:39;;;;;;;3.53;3.33;;;19.10;48.80;;;;;;4961104;28;20055;-19
2022/04/26 06:09:05;;;;;;;4.03;3.50;;;18.80;48.50;;;;;;4960159;28;20814;-18
2022/04/26 06:11:31;;;;;;;3.28;3.08;;;18.70;48.70;;;;;;4961834;28;20543;-18
2022/04/26 06:13:56;;;;;;;3.88;3.58;;;18.50;49.10;;;;;;4960771;28;20574;-17
2022/04/26 06:16:22;;;;;;;3.90;3.70;;;18.30;49.70;;;;;;4959811;28;20392;-17
2022/04/26 06:18:47;;;;;;;4.07;3.78;;;18.20;49.40;;;;;;4961032;28;20055;-18
2022/04/26 06:21:13;;;;;;;4.22;3.85;;;18.10;49.90;;;;;;4961485;28;20051;-17
2022/04/26 06:23:39;;;;;;;3.92;3.63;;;17.90;50.30;;;;;;4960237;28;20054;-17
2022/04/26 06:26:05;;;;;;;4.75;4.35;;;17.90;50.20;;;;;;4958374;28;20057;-18
2022/04/26 06:28:30;;;;;;;5.00;4.18;;;17.90;50.00;;;;;;4958825;28;20055;-18
2022/04/26 06:30:56;;;;;;;4.13;3.80;;;17.80;50.30;;;;;;4960178;28;20512;-18
2022/04/26 06:33:21;;;;;;;3.85;3.65;;;17.70;50.80;;;;;;4961294;28;20137;-16
2022/04/26 06:35:47;;;;;;;3.70;3.20;;;17.60;50.90;;;;;;4958028;28;20405;-17
2022/04/26 06:38:13;;;;;;;3.40;3.13;;;17.70;50.90;;;;;;4960821;28;20115;-17
2022/04/26 06:40:38;;;;;;;5.15;3.20;;;17.90;50.90;;;;;;4959105;28;20054;-17
2022/04/26 06:43:04;;;;;;;3.47;3.17;;;18.00;50.80;;;;;;4959205;28;20059;-17
2022/04/26 06:45:30;;;;;;;3.78;3.00;;;17.90;51.00;;;;;;4960337;28;20155;-17
2022/04/26 06:47:55;;;;;;;3.03;2.58;;;17.90;51.50;;;;;;4963977;28;20555;-17
2022/04/26 06:50:21;;;;;;;3.00;2.80;;;17.90;51.60;;;;;;4964477;28;20057;-17
2022/04/26 06:52:47;;;;;;;2.88;2.55;;;17.90;51.60;;;;;;4962300;28;20063;-18
2022/04/26 06:55:13;;;;;;;2.65;2.45;;;17.90;51.90;;;;;;4963209;28;20061;-18
2022/04/26 06:57:39;;;;;;;2.40;2.28;;;18.00;52.00;;;;;;4965377;28;20233;-18
2022/04/26 07:00:08;;;;;;;2.63;2.40;;;18.20;51.70;;;;;;4962796;28;20480;-18
2022/04/26 07:02:34;;;;;;;3.90;2.03;;;18.30;51.40;;;;;;4964975;28;20595;-18
2022/04/26 07:04:59;;;;;;;2.38;1.70;;;18.40;51.20;;;;;;4962574;28;20720;-18
2022/04/26 07:07:25;;;;;;;2.03;1.70;;;18.50;51.10;;;;;;4964548;28;20058;-18
2022/04/26 07:09:51;;;;;;;2.05;1.63;;;18.50;51.10;;;;;;4962977;28;20416;-18
2022/04/26 07:12:16;;;;;;;1.63;1.45;;;18.60;50.90;;;;;;4962590;28;20504;-18
2022/04/26 07:14:42;;;;;;;3.83;1.30;;;18.70;51.00;;;;;;4963599;28;20507;-18
2022/04/26 07:17:08;;;;;;;1.80;1.70;;;18.80;50.80;;;;;;4963789;28;20062;-18
2022/04/26 07:19:35;;;;;;;1.65;1.55;;;19.10;50.20;;;;;;4963174;28;20047;-18
2022/04/26 07:22:03;;;;;;;1.90;1.40;;;19.20;50.00;;;;;;4962803;28;20063;-18
2022/04/26 07:24:30;;;;;;;1.80;1.70;;;19.40;49.90;;;;;;4964845;28;20495;-18
2022/04/26 07:26:55;;;;;;;1.60;1.50;;;19.30;50.00;;;;;;4963232;28;20539;-18
2022/04/26 07:29:21;;;;;;;1.70;1.60;;;19.20;50.30;;;;;;4962871;28;20400;-18
2022/04/26 07:31:46;;;;;;;1.50;1.40;;;19.10;50.50;;;;;;4961765;28;20087;-19
2022/04/26 07:34:21;;;;;;;1.63;1.30;;;19.10;50.50;;;;;;4964344;28;20105;-18
2022/04/26 07:36:57;;;;;;;1.60;1.50;;;19.10;50.60;;;;;;4960865;28;20055;-18
2022/04/26 07:39:23;;;;;;;1.25;1.10;;;19.10;50.50;;;;;;4962452;28;20054;-18
2022/04/26 07:41:49;;;;;;;1.30;1.15;;;19.10;50.80;;;;;;4963659;28;20053;-18
2022/04/26 07:44:14;;;;;;;1.73;1.30;;;19.10;50.80;;;;;;4964120;28;20058;-19
2022/04/26 07:46:42;;;;;;;1.20;1.17;;;19.20;50.80;;;;;;4962876;28;20058;-18
2022/04/26 07:49:07;;;;;;;1.85;1.42;;;19.20;50.70;;;;;;4961481;28;20605;-18
2022/04/26 07:51:33;;;;;;;1.40;1.30;;;19.30;50.60;;;;;;4963632;28;20477;-18
2022/04/26 07:53:59;;;;;;;1.65;1.40;;;19.30;50.50;;;;;;4963588;28;20540;-19
2022/04/26 07:56:27;;;;;;;2.15;1.45;;;19.40;50.60;;;;;;4961850;28;20532;-19
2022/04/26 07:58:53;;;;;;;1.52;1.40;;;19.40;50.60;;;;;;4963933;28;20090;-19
2022/04/26 08:01:18;;;;;;;1.55;1.45;;;19.40;50.70;;;;;;4963390;28;20138;-18
2022/04/26 08:03:44;;;;;;;1.42;1.33;;;19.40;50.60;;;;;;4963760;28;20074;-19
2022/04/26 08:06:09;;;;;;;1.65;1.55;;;19.40;50.90;;;;;;4961682;28;20059;-19
2022/04/26 08:08:35;;;;;;;1.60;1.50;;;19.30;51.00;;;;;;4964014;28;20502;-19
2022/04/26 08:11:01;;;;;;;1.50;1.42;;;19.30;51.20;;;;;;4961000;28;20560;-19
2022/04/26 08:13:27;;;;;;;1.88;1.63;;;19.20;51.30;;;;;;4963867;28;20427;-20
2022/04/26 08:15:53;;;;;;;1.60;1.50;;;19.20;51.20;;;;;;4961111;28;20069;-19
2022/04/26 08:18:19;;;;;;;1.50;1.40;;;19.20;51.30;;;;;;4963995;28;20484;-19
2022/04/26 08:20:45;;;;;;;1.60;1.30;;;19.20;51.30;;;;;;4963274;28;20424;-19
2022/04/26 08:23:10;;;;;;;1.70;1.60;;;19.30;51.30;;;;;;4962054;28;20551;-19
2022/04/26 08:28:21;;;;;;;1.52;1.42;;;19.20;51.30;;;;;;4961145;28;20141;-19
2022/04/26 08:30:46;;;;;;;1.65;1.55;;;19.30;51.30;;;;;;4963019;28;20105;-19
2022/04/26 08:33:12;;;;;;;1.63;1.52;;;19.30;51.30;;;;;;4951882;28;20046;-20
2022/04/26 08:35:38;;;;;;;1.65;1.50;;;19.30;51.40;;;;;;4928150;28;20481;-18
2022/04/26 08:38:03;;;;;;;1.60;1.50;;;19.30;51.30;;;;;;4935092;28;20041;-19
2022/04/26 08:40:29;;;;;;;1.52;1.42;;;19.30;51.30;;;;;;4932599;28;20500;-19
2022/04/26 08:42:55;;;;;;;2.05;1.60;;;19.40;51.40;;;;;;4932426;28;20093;-18
2022/04/26 08:45:21;;;;;;;1.38;1.27;;;19.40;51.30;;;;;;4925182;28;20030;-18
2022/04/26 08:53:22;;;;;;;1.45;1.20;;;19.40;51.30;;;;;;4927736;28;20038;-18
2022/04/26 08:55:52;;;;;;;1.40;1.30;;;19.50;51.20;;;;;;4930827;28;21224;-18
2022/04/26 08:58:21;;;;;;;1.30;1.20;;;19.50;51.20;;;;;;4938337;28;20038;-18
2022/04/26 09:01:25;;;;;;;1.65;1.25;;;19.60;51.10;;;;;;4934638;28;20039;-18
2022/04/26 09:03:55;;;;;;;1.63;1.52;;;19.60;51.10;;;;;;4929286;28;20046;-18
2022/04/26 09:06:21;;;;;;;1.40;1.30;;;19.70;51.10;;;;;;4925543;28;20073;-18
2022/04/26 09:08:48;;;;;;;1.10;1.10;;;19.70;51.00;;;;;;4930563;28;20762;-19
2022/04/26 09:11:34;;;;;;;1.15;1.05;;;19.80;50.90;;;;;;4945831;28;20149;-18
2022/04/26 09:14:00;;;;;;;1.45;1.35;;;19.80;50.80;;;;;;4922758;28;20451;-19
2022/04/26 09:16:26;;;;;;;1.85;1.05;;;19.90;50.70;;;;;;4929604;28;20054;-18
2022/04/26 09:18:59;;;;;;;1.30;1.20;;;19.90;50.70;;;;;;4916005;28;20058;-18
2022/04/26 09:21:28;;;;;;;1.25;1.13;;;20.00;50.60;;;;;;4930689;28;20055;-18
2022/04/26 09:24:02;;;;;;;1.00;1.00;;;20.10;50.50;;;;;;4941369;28;20053;-18
2022/04/26 09:26:37;;;;;;;1.50;1.30;;;20.10;50.40;;;;;;4958844;28;20082;-18
2022/04/26 09:29:04;;;;;;;1.20;1.20;;;20.00;50.60;;;;;;4960425;28;20046;-19
2022/04/26 09:31:32;;;;;;;1.17;1.08;;;20.10;50.60;;;;;;4960505;28;20069;-19
2022/04/26 09:34:04;;;;;;;1.08;0.98;;;20.10;50.70;;;;;;4961487;28;20058;-18
2022/04/26 09:36:31;;;;;;;1.95;1.08;;;20.00;50.80;;;;;;4957861;28;20062;-18
2022/04/26 09:39:00;;;;;;;1.23;1.00;;;20.00;50.90;;;;;;4960897;28;20369;-18
2022/04/26 09:41:27;;;;;;;1.00;0.90;;;20.00;50.90;;;;;;4958605;28;20062;-17
2022/04/26 09:44:03;;;;;;;1.20;1.10;;;20.10;50.80;;;;;;4960873;28;20137;-18
2022/04/26 09:46:55;;;;;;;1.00;1.00;;;20.20;50.70;;;;;;4959425;28;20066;-18
2022/04/26 09:49:21;;;;;;;1.10;1.00;;;20.20;50.60;;;;;;4951295;28;20050;-18
2022/04/26 09:51:54;;;;;;;1.00;1.00;;;20.20;50.70;;;;;;4960964;28;20118;-18
2022/04/26 09:54:20;;;;;;;1.25;1.25;;;20.20;50.90;;;;;;4960154;28;20105;-18
2022/04/26 09:56:46;;;;;;;0.90;0.90;;;20.30;50.70;;;;;;4958777;28;20058;-18
2022/04/26 09:59:27;;;;;;;0.90;0.90;;;20.30;50.70;;;;;;4958582;28;20081;-18
2022/04/26 10:01:57;;;;;;;0.80;0.80;;;20.40;50.60;;;;;;4958906;28;20062;-18
2022/04/26 10:04:24;;;;;;;0.80;0.80;;;20.40;50.50;;;;;;4959944;28;20723;-17
2022/04/26 10:06:51;;;;;;;0.80;0.80;;;20.40;50.50;;;;;;4956190;28;20230;-18
2022/04/26 10:09:17;;;;;;;0.70;0.70;;;20.40;50.60;;;;;;4957852;28;20078;-18
2022/04/26 10:11:43;;;;;;;1.00;1.00;;;20.40;50.60;;;;;;4959300;28;20073;-18
2022/04/26 10:14:10;;;;;;;1.20;1.20;;;20.50;50.70;;;;;;4942231;28;20046;-21
2022/04/26 10:16:36;;;;;;;1.13;1.05;;;20.40;50.80;;;;;;4948441;28;20058;-18
2022/04/26 10:19:08;;;;;;;1.35;1.23;;;20.40;50.90;;;;;;4958165;28;20093;-18
2022/04/26 10:21:40;;;;;;;1.45;1.35;;;20.50;50.70;;;;;;4989590;28;20050;-19
2022/04/26 10:24:06;;;;;;;1.40;1.30;;;20.60;50.50;;;;;;4982671;28;20043;-19
2022/04/26 10:26:33;;;;;;;1.15;1.08;;;20.60;51.20;;;;;;4977181;28;20051;-17
2022/04/26 10:29:08;;;;;;;0.95;0.95;;;20.60;50.50;;;;;;4977054;28;20042;-18
2022/04/26 10:31:37;;;;;;;1.20;1.08;;;20.60;50.50;;;;;;4976438;28;20051;-18
2022/04/26 10:34:16;;;;;;;1.00;1.00;;;20.60;50.40;;;;;;4978405;28;20046;-17
2022/04/26 10:36:42;;;;;;;1.20;1.10;;;20.60;50.60;;;;;;4977863;28;20042;-17
2022/04/26 10:39:14;;;;;;;1.10;1.10;;;20.60;50.60;;;;;;4978558;28;20224;-18
2022/04/26 10:41:46;;;;;;;0.80;0.80;;;20.60;50.60;;;;;;4976332;28;20046;-17
2022/04/26 10:44:17;;;;;;;1.48;1.38;;;20.60;50.80;;;;;;4978031;28;20055;-17
2022/04/26 10:46:59;;;;;;;1.30;1.30;;;20.50;50.80;;;;;;4977527;28;20109;-17
2022/04/26 10:49:35;;;;;;;1.00;1.00;;;20.60;50.80;;;;;;4988850;28;20061;-17
2022/04/26 10:52:43;;;;;;;1.58;1.50;;;20.60;50.80;;;;;;4998235;28;20102;-17
2022/04/26 10:55:04;;;;;;;1.05;1.05;;;20.50;50.80;;;;;;4997193;28;20070;-17
2022/04/26 10:57:39;;;;;;;1.90;1.15;;;20.60;50.80;;;;;;4996465;28;20066;-18
2022/04/26 11:00:09;;;;;;;0.80;0.80;;;20.60;50.80;;;;;;4998731;28;20049;-17
2022/04/26 11:02:40;;;;;;;1.17;1.08;;;20.60;50.90;;;;;;4981782;28;20043;-17
2022/04/26 11:05:18;;;;;;;1.15;1.15;;;20.60;51.00;;;;;;4975984;28;20039;-17
2022/04/26 11:07:45;;;;;;;1.10;1.10;;;20.60;51.10;;;;;;4979114;28;20516;-17
2022/04/26 11:10:11;;;;;;;1.10;1.10;;;20.50;51.10;;;;;;4979019;28;20647;-17
2022/04/26 11:12:37;;;;;;;1.50;0.90;;;20.50;51.20;;;;;;4979160;28;20043;-17
2022/04/26 11:15:13;;;;;;;1.02;1.02;;;20.50;51.20;;;;;;4975110;28;20043;-18
2022/04/26 11:17:39;;;;;;;0.90;0.90;;;20.50;51.20;;;;;;4977658;28;20508;-17
2022/04/26 11:20:21;;;;;;;1.20;1.20;;;20.50;51.20;;;;;;4977631;28;20049;-17
2022/04/26 11:22:48;;;;;;;0.85;0.85;;;20.50;51.20;;;;;;4959913;28;20043;-17
2022/04/26 11:28:11;;;;;;;;;;;20.50;51.20;;;;;;4978866;28;20428;-17
2022/04/26 11:30:40;;;;;;;0.80;0.80;;;20.60;51.20;;;;;;4978539;28;20404;-17
2022/04/26 11:33:15;;;;;;;1.10;1.10;;;20.60;51.20;;;;;;4997960;28;20050;-17
2022/04/26 11:35:41;;;;;;;1.25;1.20;;;20.50;51.20;;;;;;4997035;28;20069;-17
2022/04/26 11:38:11;;;;;;;1.08;1.08;;;20.50;51.40;;;;;;4997127;28;20446;-17
2022/04/26 11:40:38;;;;;;;1.20;1.20;;;20.50;51.40;;;;;;4992299;28;20048;-16
2022/04/26 11:43:14;;;;;;;0.90;0.90;;;20.50;51.40;;;;;;4998090;28;20522;-16
2022/04/26 11:45:44;;;;;;;1.20;1.00;;;20.50;51.40;;;;;;4983740;28;20129;-17
2022/04/26 11:48:30;;;;;;;1.30;1.20;;;20.60;51.40;;;;;;4977760;28;20042;-17
2022/04/26 11:50:57;;;;;;;1.30;1.20;;;20.50;51.40;;;;;;4978678;28;20500;-16
2022/04/26 11:53:24;;;;;;;1.13;1.13;;;20.50;51.40;;;;;;4978199;28;20125;-16
2022/04/26 11:55:53;;;;;;;1.00;1.00;;;20.50;51.50;;;;;;4997551;28;20462;-17
2022/04/26 11:58:25;;;;;;;1.20;1.20;;;20.60;51.50;;;;;;4997643;28;20034;-16
2022/04/26 12:00:56;;;;;;;1.00;1.00;;;20.50;51.50;;;;;;4976700;28;20051;-17
2022/04/26 12:03:23;;;;;;;0.95;0.95;;;20.60;51.50;;;;;;4977865;28;20035;-17
2022/04/26 12:06:03;;;;;;;1.10;1.10;;;20.60;51.50;;;;;;4976776;28;20057;-17
2022/04/26 12:08:30;;;;;;;1.13;1.13;;;20.50;51.50;;;;;;4977455;28;20524;-17
2022/04/26 12:11:19;;;;;;;1.08;1.05;;;20.50;51.70;;;;;;4992598;28;20108;-17
2022/04/26 12:13:44;;;;;;;1.15;1.15;;;20.50;51.80;;;;;;4996141;28;20130;-17
2022/04/26 12:16:20;;;;;;;1.20;1.20;;;20.50;51.80;;;;;;4983693;28;20492;-17
2022/04/26 12:18:56;;;;;;;0.93;0.93;;;20.50;51.70;;;;;;4984430;28;20040;-17
2022/04/26 12:21:23;;;;;;;0.82;0.82;;;20.60;51.70;;;;;;4996657;28;20053;-17
2022/04/26 12:24:11;;;;;;;1.13;1.13;;;20.60;51.70;;;;;;4989794;28;20041;-17
2022/04/26 12:26:57;;;;;;;1.35;1.25;;;20.50;51.80;;;;;;4996245;28;20057;-17
2022/04/26 12:29:28;;;;;;;1.10;1.00;;;20.60;51.80;;;;;;4984117;28;20035;-17
2022/04/26 12:31:54;;;;;;;1.00;1.00;;;20.60;51.80;;;;;;4976531;28;20523;-17
2022/04/26 12:34:22;;;;;;;1.00;1.00;;;20.60;51.90;;;;;;4969764;28;20404;-17
2022/04/26 12:37:03;;;;;;;7.93;1.15;;;20.50;52.00;;;;;;4977317;28;20047;-17
2022/04/26 12:39:40;;;;;;;1.20;1.20;;;20.50;52.20;;;;;;4976682;28;20396;-17
2022/04/26 12:42:07;;;;;;;1.70;0.88;;;20.40;52.20;;;;;;4981850;28;20054;-19
2022/04/26 12:44:33;;;;;;;1.10;1.10;;;20.50;52.30;;;;;;4977516;28;20081;-17
2022/04/26 12:52:47;;;;;;;0.70;0.70;;;20.50;52.20;;;;;;4974830;28;20101;-17
2022/04/26 12:55:22;;;;;;;0.80;0.80;;;20.60;52.20;;;;;;4975839;28;20046;-17
2022/04/26 12:57:52;;;;;;;0.90;0.90;;;20.60;52.10;;;;;;4976634;28;20047;-17
2022/04/26 13:00:19;;;;;;;1.00;1.00;;;20.60;52.20;;;;;;4994905;28;20038;-17
2022/04/26 13:02:47;;;;;;;1.10;1.10;;;20.60;52.30;;;;;;4988153;28;20047;-17
2022/04/26 13:05:12;;;;;;;0.95;0.95;;;20.50;52.30;;;;;;4975992;28;20125;-18
2022/04/26 13:07:38;;;;;;;0.90;0.90;;;20.60;52.30;;;;;;4971131;28;20062;-17
2022/04/26 13:10:04;;;;;;;1.10;1.10;;;20.60;52.30;;;;;;4975959;28;20047;-17
2022/04/26 13:12:31;;;;;;;1.20;1.20;;;20.60;52.20;;;;;;4975270;28;20047;-18
2022/04/26 13:14:58;;;;;;;1.05;1.05;;;20.60;52.20;;;;;;4988001;28;20503;-18
2022/04/26 13:17:24;;;;;;;1.00;1.00;;;20.60;52.10;;;;;;4995207;28;20042;-17
2022/04/26 13:19:49;;;;;;;1.10;1.10;;;20.60;52.20;;;;;;4995249;28;20049;-17
2022/04/26 13:22:16;;;;;;;0.90;0.90;;;20.60;52.30;;;;;;4994803;28;20046;-18
2022/04/26 13:24:42;;;;;;;1.02;1.02;;;20.60;52.90;;;;;;4973746;28;20047;-17
2022/04/26 13:27:08;;;;;;;1.17;1.17;;;20.60;52.30;;;;;;4975516;28;20085;-17
2022/04/26 13:29:33;;;;;;;1.40;1.40;;;20.60;52.30;;;;;;4975135;28;20134;-21
2022/04/26 13:32:00;;;;;;;1.38;1.35;;;20.60;52.30;;;;;;4987188;28;20050;-17
2022/04/26 13:34:26;;;;;;;1.33;1.33;;;20.60;52.20;;;;;;4974403;28;20070;-17
2022/04/26 13:36:52;;;;;;;1.10;1.10;;;20.60;52.20;;;;;;4993919;28;20077;-17
2022/04/26 13:39:18;;;;;;;1.15;1.15;;;20.60;52.20;;;;;;4990961;28;20046;-17
2022/04/26 13:41:44;;;;;;;1.30;1.30;;;20.60;52.30;;;;;;4983034;28;20174;-17
2022/04/26 13:44:09;;;;;;;0.90;0.90;;;20.60;52.40;;;;;;4974517;28;20522;-18
2022/04/26 13:46:36;;;;;;;1.00;1.00;;;20.60;52.30;;;;;;4987802;28;20061;-18
2022/04/26 13:49:02;;;;;;;0.88;0.88;;;20.60;52.30;;;;;;4991471;28;20046;-18
2022/04/26 13:51:29;;;;;;;0.80;0.80;;;20.60;52.50;;;;;;4994118;28;20615;-18
2022/04/26 13:53:55;;;;;;;0.90;0.90;;;20.70;52.40;;;;;;4988978;28;20049;-17
2022/04/26 13:56:20;;;;;;;0.85;0.85;;;20.60;52.50;;;;;;4973611;28;20055;-17
2022/04/26 13:58:46;;;;;;;0.82;0.82;;;20.60;52.60;;;;;;4984571;28;20057;-16
2022/04/26 14:01:11;;;;;;;0.80;0.80;;;20.50;52.80;;;;;;4995091;28;20081;-17
2022/04/26 14:03:37;;;;;;;1.17;1.17;;;20.50;52.70;;;;;;4994255;28;20411;-16
2022/04/26 14:06:03;;;;;;;1.20;1.20;;;20.50;52.80;;;;;;4994936;28;20182;-17
2022/04/26 14:08:31;;;;;;;1.30;1.30;;;20.50;52.80;;;;;;4990371;28;20129;-17
2022/04/26 14:10:57;;;;;;;1.00;1.00;;;20.50;52.80;;;;;;4990857;28;20049;-17
2022/04/26 14:13:22;;;;;;;0.95;0.95;;;20.50;52.70;;;;;;4992721;28;20050;-16
2022/04/26 14:24:06;;;;;;;1.10;1.10;;;20.60;52.70;;;;;;4979184;28;20126;-17
2022/04/26 14:26:31;;;;;;;1.23;1.20;;;20.60;52.70;;;;;;4974539;28;20141;-16
2022/04/26 14:28:57;;;;;;;1.52;1.30;;;20.60;52.60;;;;;;4975408;28;20129;-17
2022/04/26 14:31:22;;;;;;;1.05;1.05;;;20.60;52.50;;;;;;4971131;28;20069;-16
2022/04/26 14:33:48;;;;;;;0.95;0.95;;;20.70;52.60;;;;;;4973712;28;20113;-16
2022/04/26 14:36:14;;;;;;;0.70;0.70;;;20.70;52.50;;;;;;4975428;28;20150;-16
2022/04/26 14:38:39;;;;;;;0.88;0.88;;;20.70;52.50;;;;;;4993347;28;20403;-17
2022/04/26 14:41:05;;;;;;;0.90;0.90;;;20.70;52.40;;;;;;4987485;28;20463;-17
2022/04/26 14:43:31;;;;;;;0.90;0.90;;;20.70;52.50;;;;;;4984262;28;20053;-17
2022/04/26 14:45:56;;;;;;;0.80;0.80;;;20.60;52.50;;;;;;4993678;28;20081;-16
2022/04/26 14:48:23;;;;;;;0.80;0.80;;;20.70;52.50;;;;;;4989357;28;20042;-17
2022/04/26 14:50:49;;;;;;;0.95;0.95;;;20.70;52.60;;;;;;4992693;28;20058;-17
2022/04/26 14:53:15;;;;;;;0.70;0.70;;;20.60;52.60;;;;;;4993639;28;20035;-17
2022/04/26 14:55:41;;;;;;;0.95;0.95;;;20.70;52.50;;;;;;4993478;28;20053;-16
2022/04/26 14:58:09;;;;;;;0.90;0.90;;;20.70;52.40;;;;;;4987635;28;20145;-17
2022/04/26 15:00:36;;;;;;;0.80;0.80;;;20.70;52.40;;;;;;4973860;28;20038;-16
2022/04/26 15:03:02;;;;;;;0.80;0.80;;;20.70;52.40;;;;;;4983174;28;20047;-17
2022/04/26 15:05:27;;;;;;;0.85;0.85;;;20.70;52.40;;;;;;4994076;28;20496;-17
2022/04/26 15:10:37;;;;;;;0.80;0.80;;;20.70;52.40;;;;;;4993402;28;20077;-16
2022/04/26 15:18:32;;;;;;;;;;;20.70;52.30;;;;;;4998044;28;20576;-17
2022/04/26 15:20:59;;;;;;;0.77;0.77;;;20.70;52.30;;;;;;4994233;28;19939;-17
2022/04/26 15:23:25;;;;;;;0.80;0.80;;;20.70;52.40;;;;;;4988827;28;20137;-16
2022/04/26 15:25:52;;;;;;;1.00;1.00;;;20.70;52.40;;;;;;4974389;28;20058;-17
2022/04/26 15:28:21;;;;;;;1.02;0.77;;;20.70;52.30;;;;;;4979459;28;20061;-16
2022/04/26 15:30:48;;;;;;;0.90;0.90;;;20.80;52.30;;;;;;4994664;28;20129;-19
2022/04/26 15:33:13;;;;;;;0.80;0.80;;;20.80;52.30;;;;;;4997258;28;20038;-18
2022/04/26 15:35:39;;;;;;;0.80;0.70;;;20.80;52.30;;;;;;4996926;28;20100;-18
2022/04/26 15:38:10;;;;;;;1.00;1.00;;;20.80;52.30;;;;;;4987484;28;20035;-17
2022/04/26 15:40:35;;;;;;;0.80;0.80;;;20.80;52.20;;;;;;4975259;28;20129;-17
2022/04/26 15:43:01;;;;;;;0.68;0.68;;;20.80;52.20;;;;;;4976575;28;20042;-17
2022/04/26 15:45:27;;;;;;;1.10;1.10;;;20.80;52.20;;;;;;4970694;28;20046;-17
2022/04/26 15:47:52;;;;;;;0.80;0.80;;;20.70;52.30;;;;;;4974761;28;20371;-19
2022/04/26 15:50:18;;;;;;;1.00;1.00;;;20.80;52.30;;;;;;4975597;28;20072;-17
2022/04/26 15:52:44;;;;;;;1.10;1.10;;;20.80;52.30;;;;;;4996939;28;20027;-17
2022/04/26 15:55:09;;;;;;;1.02;0.93;;;20.80;52.30;;;;;;4995648;28;20584;-17
2022/04/26 15:57:35;;;;;;;1.02;1.02;;;20.80;52.30;;;;;;4991040;28;20055;-17
2022/04/26 16:00:01;;;;;;;0.90;0.90;;;20.80;52.20;;;;;;4995728;28;20073;-17
2022/04/26 16:02:27;;;;;;;1.00;1.00;;;20.80;52.30;;;;;;4996806;28;20129;-18
2022/04/26 16:04:52;;;;;;;0.82;0.82;;;20.80;52.30;;;;;;4992438;28;20116;-17
2022/04/26 16:07:18;;;;;;;0.90;0.90;;;20.80;52.30;;;;;;4996569;28;20514;-16
2022/04/26 16:20:42;;;;;;;;;;;20.80;52.50;;;;;;4996556;28;20081;-16
2022/04/26 16:23:07;;;;;;;0.98;0.95;;;20.80;52.40;;;;;;4986524;28;19949;-16
2022/04/26 16:25:33;;;;;;;0.80;0.80;;;20.80;52.50;;;;;;4974093;28;20074;-18
2022/04/26 16:28:00;;;;;;;0.80;0.80;;;20.70;52.40;;;;;;4975355;28;20049;-19
2022/04/26 16:30:29;;;;;;;0.80;0.80;;;20.70;52.60;;;;;;4978006;28;20511;-19
2022/04/26 16:32:56;;;;;;;0.80;0.80;;;20.80;52.70;;;;;;4986556;28;20050;-19
2022/04/26 16:35:22;;;;;;;0.93;0.93;;;20.80;52.80;;;;;;4991557;28;20051;-20
2022/04/26 16:37:47;;;;;;;1.00;1.00;;;20.80;52.50;;;;;;4977478;28;20053;-20
2022/04/26 16:40:13;;;;;;;0.88;0.88;;;20.80;52.60;;;;;;4977532;28;20058;-22
2022/04/26 16:42:39;;;;;;;0.93;0.93;;;20.80;52.50;;;;;;4958890;28;20054;-19
2022/04/26 16:45:05;;;;;;;0.90;0.90;;;20.80;52.40;;;;;;4956909;28;20130;-19
2022/04/26 16:47:31;;;;;;;0.90;0.90;;;20.80;52.60;;;;;;4958635;28;20047;-22
2022/04/26 16:49:57;;;;;;;1.50;0.98;;;20.80;52.50;;;;;;4965516;28;20066;-19
2022/04/26 16:52:23;;;;;;;1.80;0.93;;;20.80;52.50;;;;;;4977861;28;20038;-19
2022/04/26 16:54:50;;;;;;;0.88;0.88;;;20.80;52.50;;;;;;4977277;28;20578;-21
2022/04/26 16:57:16;;;;;;;0.90;0.90;;;20.80;52.70;;;;;;4977885;28;20078;-19
2022/04/26 16:59:41;;;;;;;0.82;0.82;;;20.80;52.70;;;;;;4997323;28;20511;-19
2022/04/26 17:02:07;;;;;;;1.00;1.00;;;20.80;52.60;;;;;;4981256;28;20381;-19
2022/04/26 17:04:33;;;;;;;1.00;1.00;;;20.80;52.60;;;;;;4977891;28;20047;-19
2022/04/26 17:06:59;;;;;;;1.00;1.00;;;20.80;52.60;;;;;;4996392;28;20042;-19
2022/04/26 17:09:25;;;;;;;1.15;1.15;;;20.80;52.50;;;;;;4990899;28;20051;-19
2022/04/26 17:11:51;;;;;;;1.02;1.02;;;20.80;52.70;;;;;;4977019;28;20034;-19
2022/04/26 17:14:17;;;;;;;1.00;1.00;;;20.70;52.60;;;;;;4976337;28;20058;-19